sensor_id;sensor_type;location;lat;lon;timestamp;pressure;altitude;pressure_sealevel;temperature;humidity
19259;BME280;9763;48.780;9.212;2024-01-15T00:00:04;97391.88;;;2.77;76.14
19259;BME280;9763;48.780;9.212;2024-01-15T00:03:31;97392.66;;;2.78;75.83
19259;BME280;9763;48.780;9.212;2024-01-15T00:06:57;97394.13;;;2.83;76.33
19259;BME280;9763;48.780;9.212;2024-01-15T00:10:20;97380.47;;;2.81;75.97
19259;BME280;9763;48.780;9.212;2024-01-15T00:13:44;97377.22;;;2.78;75.63
19259;BME280;9763;48.780;9.212;2024-01-15T00:17:08;97381.03;;;2.71;75.50
19259;BME280;9763;48.780;9.212;2024-01-15T00:20:31;97371.19;;;2.62;75.57
19259;BME280;9763;48.780;9.212;2024-01-15T00:23:56;97369.16;;;2.51;75.73
19259;BME280;9763;48.780;9.212;2024-01-15T00:27:20;97363.84;;;2.37;75.69
19259;BME280;9763;48.780;9.212;2024-01-15T00:30:44;97372.84;;;2.28;75.65
19259;BME280;9763;48.780;9.212;2024-01-15T00:34:08;97373.28;;;2.19;76.16
19259;BME280;9763;48.780;9.212;2024-01-15T00:37:32;97367.59;;;2.12;76.15
19259;BME280;9763;48.780;9.212;2024-01-15T00:40:57;97370.56;;;2.05;75.92
19259;BME280;9763;48.780;9.212;2024-01-15T00:44:20;97365.69;;;1.99;76.17
19259;BME280;9763;48.780;9.212;2024-01-15T00:47:44;97361.75;;;1.92;75.80
19259;BME280;9763;48.780;9.212;2024-01-15T00:51:07;97367.09;;;1.87;76.55
19259;BME280;9763;48.780;9.212;2024-01-15T00:54:31;97370.78;;;1.81;76.11
19259;BME280;9763;48.780;9.212;2024-01-15T00:57:56;97373.53;;;1.78;76.89
19259;BME280;9763;48.780;9.212;2024-01-15T01:01:19;97371.84;;;1.77;76.33
19259;BME280;9763;48.780;9.212;2024-01-15T01:04:43;97354.13;;;1.71;76.84
19259;BME280;9763;48.780;9.212;2024-01-15T01:08:07;97358.22;;;1.75;76.00
19259;BME280;9763;48.780;9.212;2024-01-15T01:11:30;97371.00;;;1.77;76.61
19259;BME280;9763;48.780;9.212;2024-01-15T01:14:55;97358.03;;;1.80;76.83
19259;BME280;9763;48.780;9.212;2024-01-15T01:18:19;97369.59;;;1.89;76.64
19259;BME280;9763;48.780;9.212;2024-01-15T01:21:43;97363.19;;;1.97;76.56
19259;BME280;9763;48.780;9.212;2024-01-15T01:25:07;97359.31;;;2.06;76.43
19259;BME280;9763;48.780;9.212;2024-01-15T01:28:31;97354.81;;;2.11;76.87
19259;BME280;9763;48.780;9.212;2024-01-15T01:31:56;97351.94;;;2.17;76.62
19259;BME280;9763;48.780;9.212;2024-01-15T01:35:19;97359.44;;;2.22;76.37
19259;BME280;9763;48.780;9.212;2024-01-15T01:38:43;97356.66;;;2.26;76.38
19259;BME280;9763;48.780;9.212;2024-01-15T01:42:07;97345.50;;;2.26;76.47
19259;BME280;9763;48.780;9.212;2024-01-15T01:45:31;97344.84;;;2.39;76.54
19259;BME280;9763;48.780;9.212;2024-01-15T01:48:57;97359.97;;;2.45;76.92
19259;BME280;9763;48.780;9.212;2024-01-15T01:52:26;97358.78;;;2.52;76.08
19259;BME280;9763;48.780;9.212;2024-01-15T01:55:50;97356.78;;;2.58;76.36
19259;BME280;9763;48.780;9.212;2024-01-15T01:59:14;97356.56;;;2.62;76.38
19259;BME280;9763;48.780;9.212;2024-01-15T02:02:38;97347.84;;;2.65;76.68
19259;BME280;9763;48.780;9.212;2024-01-15T02:06:04;97345.09;;;2.68;76.41
19259;BME280;9763;48.780;9.212;2024-01-15T02:09:27;97351.34;;;2.64;76.25
19259;BME280;9763;48.780;9.212;2024-01-15T02:12:51;97347.84;;;2.65;76.46
19259;BME280;9763;48.780;9.212;2024-01-15T02:16:14;97349.59;;;2.64;76.37
19259;BME280;9763;48.780;9.212;2024-01-15T02:19:38;97341.25;;;2.59;76.44
19259;BME280;9763;48.780;9.212;2024-01-15T02:23:12;97339.66;;;2.57;76.25
19259;BME280;9763;48.780;9.212;2024-01-15T02:26:37;97344.81;;;2.57;76.62
19259;BME280;9763;48.780;9.212;2024-01-15T02:30:01;97336.44;;;2.53;76.43
19259;BME280;9763;48.780;9.212;2024-01-15T02:33:25;97349.53;;;2.48;76.88
19259;BME280;9763;48.780;9.212;2024-01-15T02:36:49;97345.34;;;2.46;76.39
19259;BME280;9763;48.780;9.212;2024-01-15T02:40:14;97343.94;;;2.40;76.48
19259;BME280;9763;48.780;9.212;2024-01-15T02:43:38;97339.69;;;2.39;77.10
19259;BME280;9763;48.780;9.212;2024-01-15T02:47:01;97335.59;;;2.35;76.65
19259;BME280;9763;48.780;9.212;2024-01-15T02:50:25;97323.78;;;2.31;76.67
19259;BME280;9763;48.780;9.212;2024-01-15T02:53:50;97330.00;;;2.27;76.46
19259;BME280;9763;48.780;9.212;2024-01-15T02:57:15;97335.44;;;2.21;76.66
19259;BME280;9763;48.780;9.212;2024-01-15T03:00:38;97332.16;;;2.17;76.83
19259;BME280;9763;48.780;9.212;2024-01-15T03:04:02;97331.50;;;2.14;77.19
19259;BME280;9763;48.780;9.212;2024-01-15T03:07:28;97323.09;;;2.10;76.54
19259;BME280;9763;48.780;9.212;2024-01-15T03:10:51;97322.47;;;2.05;77.07
19259;BME280;9763;48.780;9.212;2024-01-15T03:14:17;97321.75;;;2.03;76.53
19259;BME280;9763;48.780;9.212;2024-01-15T03:17:41;97317.63;;;1.99;77.13
19259;BME280;9763;48.780;9.212;2024-01-15T03:21:06;97328.91;;;1.97;77.11
19259;BME280;9763;48.780;9.212;2024-01-15T03:24:31;97324.72;;;1.94;76.45
19259;BME280;9763;48.780;9.212;2024-01-15T03:27:55;97324.84;;;1.93;76.60
19259;BME280;9763;48.780;9.212;2024-01-15T03:31:20;97330.88;;;1.92;77.16
19259;BME280;9763;48.780;9.212;2024-01-15T03:34:44;97311.28;;;1.89;76.37
19259;BME280;9763;48.780;9.212;2024-01-15T03:38:08;97316.41;;;1.89;76.73
19259;BME280;9763;48.780;9.212;2024-01-15T03:41:31;97309.81;;;1.84;77.31
19259;BME280;9763;48.780;9.212;2024-01-15T03:44:55;97309.59;;;1.88;77.47
19259;BME280;9763;48.780;9.212;2024-01-15T03:48:20;97307.03;;;1.88;76.58
19259;BME280;9763;48.780;9.212;2024-01-15T03:51:44;97306.19;;;1.88;77.41
19259;BME280;9763;48.780;9.212;2024-01-15T03:55:08;97307.88;;;1.89;76.88
19259;BME280;9763;48.780;9.212;2024-01-15T03:58:31;97304.09;;;1.96;77.39
19259;BME280;9763;48.780;9.212;2024-01-15T04:01:55;97301.16;;;2.03;77.02
19259;BME280;9763;48.780;9.212;2024-01-15T04:05:20;97297.16;;;2.15;76.81
19259;BME280;9763;48.780;9.212;2024-01-15T04:08:44;97294.88;;;2.26;77.26
19259;BME280;9763;48.780;9.212;2024-01-15T04:12:08;97289.19;;;2.37;77.03
19259;BME280;9763;48.780;9.212;2024-01-15T04:15:31;97274.25;;;2.43;76.52
19259;BME280;9763;48.780;9.212;2024-01-15T04:18:55;97277.28;;;2.51;76.31
19259;BME280;9763;48.780;9.212;2024-01-15T04:22:20;97276.81;;;2.61;76.38
19259;BME280;9763;48.780;9.212;2024-01-15T04:25:43;97280.91;;;2.65;76.53
19259;BME280;9763;48.780;9.212;2024-01-15T04:29:08;97276.25;;;2.71;76.61
19259;BME280;9763;48.780;9.212;2024-01-15T04:32:31;97274.16;;;2.78;77.28
19259;BME280;9763;48.780;9.212;2024-01-15T04:35:55;97274.03;;;2.81;77.22
19259;BME280;9763;48.780;9.212;2024-01-15T04:39:19;97273.72;;;2.87;76.58
19259;BME280;9763;48.780;9.212;2024-01-15T04:42:44;97262.22;;;2.93;76.79
19259;BME280;9763;48.780;9.212;2024-01-15T04:46:08;97261.94;;;2.99;76.76
19259;BME280;9763;48.780;9.212;2024-01-15T04:49:32;97267.56;;;3.05;77.07
19259;BME280;9763;48.780;9.212;2024-01-15T04:52:55;97271.59;;;3.11;76.60
19259;BME280;9763;48.780;9.212;2024-01-15T04:56:20;97266.34;;;3.12;77.06
19259;BME280;9763;48.780;9.212;2024-01-15T04:59:44;97261.69;;;3.19;76.29
19259;BME280;9763;48.780;9.212;2024-01-15T05:03:08;97242.72;;;3.20;77.15
19259;BME280;9763;48.780;9.212;2024-01-15T05:06:31;97246.97;;;3.21;76.90
19259;BME280;9763;48.780;9.212;2024-01-15T05:09:55;97248.56;;;3.23;76.76
19259;BME280;9763;48.780;9.212;2024-01-15T05:13:20;97239.06;;;3.24;76.79
19259;BME280;9763;48.780;9.212;2024-01-15T05:16:47;97248.56;;;3.23;77.27
19259;BME280;9763;48.780;9.212;2024-01-15T05:20:11;97242.47;;;3.24;76.26
19259;BME280;9763;48.780;9.212;2024-01-15T05:23:35;97242.38;;;3.26;76.67
19259;BME280;9763;48.780;9.212;2024-01-15T05:26:58;97236.22;;;3.29;77.24
19259;BME280;9763;48.780;9.212;2024-01-15T05:30:23;97234.41;;;3.31;76.65
19259;BME280;9763;48.780;9.212;2024-01-15T05:33:47;97224.75;;;3.34;76.49
19259;BME280;9763;48.780;9.212;2024-01-15T05:37:11;97224.59;;;3.37;76.46
19259;BME280;9763;48.780;9.212;2024-01-15T05:40:34;97227.06;;;3.39;76.59
19259;BME280;9763;48.780;9.212;2024-01-15T05:43:58;97220.91;;;3.41;75.64
19259;BME280;9763;48.780;9.212;2024-01-15T05:47:23;97207.94;;;3.43;76.35
19259;BME280;9763;48.780;9.212;2024-01-15T05:50:46;97213.91;;;3.43;76.61
19259;BME280;9763;48.780;9.212;2024-01-15T05:54:10;97222.34;;;3.47;76.61
19259;BME280;9763;48.780;9.212;2024-01-15T05:57:34;97223.91;;;3.49;77.02
19259;BME280;9763;48.780;9.212;2024-01-15T06:00:57;97227.31;;;3.50;76.33
19259;BME280;9763;48.780;9.212;2024-01-15T06:04:23;97234.03;;;3.52;77.06
19259;BME280;9763;48.780;9.212;2024-01-15T06:07:46;97231.47;;;3.52;76.17
19259;BME280;9763;48.780;9.212;2024-01-15T06:11:10;97227.06;;;3.54;76.99
19259;BME280;9763;48.780;9.212;2024-01-15T06:14:34;97229.63;;;3.54;76.08
19259;BME280;9763;48.780;9.212;2024-01-15T06:17:57;97227.88;;;3.55;75.93
19259;BME280;9763;48.780;9.212;2024-01-15T06:21:22;97248.34;;;3.58;76.62
19259;BME280;9763;48.780;9.212;2024-01-15T06:24:46;97228.63;;;3.57;76.96
19259;BME280;9763;48.780;9.212;2024-01-15T06:28:09;97226.88;;;3.57;76.89
19259;BME280;9763;48.780;9.212;2024-01-15T06:31:33;97219.91;;;3.59;76.48
19259;BME280;9763;48.780;9.212;2024-01-15T06:34:57;97212.16;;;3.59;76.60
19259;BME280;9763;48.780;9.212;2024-01-15T06:38:22;97208.66;;;3.60;76.34
19259;BME280;9763;48.780;9.212;2024-01-15T06:41:45;97204.34;;;3.61;76.67
19259;BME280;9763;48.780;9.212;2024-01-15T06:45:09;97198.44;;;3.59;76.42
19259;BME280;9763;48.780;9.212;2024-01-15T06:48:33;97194.09;;;3.59;76.46
19259;BME280;9763;48.780;9.212;2024-01-15T06:51:56;97188.13;;;3.59;76.39
19259;BME280;9763;48.780;9.212;2024-01-15T06:55:21;97183.69;;;3.61;76.99
19259;BME280;9763;48.780;9.212;2024-01-15T06:58:45;97192.34;;;3.60;76.90
19259;BME280;9763;48.780;9.212;2024-01-15T07:02:09;97185.38;;;3.62;77.02
19259;BME280;9763;48.780;9.212;2024-01-15T07:05:33;97186.16;;;3.62;76.64
19259;BME280;9763;48.780;9.212;2024-01-15T07:08:56;97193.91;;;3.62;76.03
19259;BME280;9763;48.780;9.212;2024-01-15T07:12:21;97187.84;;;3.63;75.90
19259;BME280;9763;48.780;9.212;2024-01-15T07:15:46;97189.59;;;3.63;76.31
19259;BME280;9763;48.780;9.212;2024-01-15T07:19:09;97190.31;;;3.65;76.71
19259;BME280;9763;48.780;9.212;2024-01-15T07:22:33;97190.25;;;3.67;76.27
19259;BME280;9763;48.780;9.212;2024-01-15T07:25:57;97200.41;;;3.70;75.94
19259;BME280;9763;48.780;9.212;2024-01-15T07:29:22;97200.31;;;3.71;76.78
19259;BME280;9763;48.780;9.212;2024-01-15T07:32:45;97204.56;;;3.72;76.40
19259;BME280;9763;48.780;9.212;2024-01-15T07:36:09;97195.69;;;3.76;75.66
19259;BME280;9763;48.780;9.212;2024-01-15T07:39:33;97208.53;;;3.78;75.64
19259;BME280;9763;48.780;9.212;2024-01-15T07:42:57;97193.94;;;3.77;75.43
19259;BME280;9763;48.780;9.212;2024-01-15T07:46:22;97198.13;;;3.79;75.52
19259;BME280;9763;48.780;9.212;2024-01-15T07:49:47;97198.88;;;3.81;76.14
19259;BME280;9763;48.780;9.212;2024-01-15T07:53:11;97203.09;;;3.82;76.00
19259;BME280;9763;48.780;9.212;2024-01-15T07:56:52;97199.53;;;3.85;75.89
19259;BME280;9763;48.780;9.212;2024-01-15T08:00:17;97220.09;;;3.86;75.51
19259;BME280;9763;48.780;9.212;2024-01-15T08:03:42;97212.16;;;3.89;76.09
19259;BME280;9763;48.780;9.212;2024-01-15T08:07:06;97204.50;;;3.88;75.45
19259;BME280;9763;48.780;9.212;2024-01-15T08:10:30;97205.91;;;3.93;75.39
19259;BME280;9763;48.780;9.212;2024-01-15T08:13:53;97211.72;;;3.97;75.79
19259;BME280;9763;48.780;9.212;2024-01-15T08:17:17;97215.03;;;3.99;75.45
19259;BME280;9763;48.780;9.212;2024-01-15T08:20:42;97211.59;;;3.98;75.62
19259;BME280;9763;48.780;9.212;2024-01-15T08:24:06;97220.69;;;4.06;75.25
19259;BME280;9763;48.780;9.212;2024-01-15T08:27:30;97217.19;;;4.07;75.44
19259;BME280;9763;48.780;9.212;2024-01-15T08:30:54;97211.84;;;4.10;75.25
19259;BME280;9763;48.780;9.212;2024-01-15T08:34:18;97215.97;;;4.12;74.61
19259;BME280;9763;48.780;9.212;2024-01-15T08:37:46;97207.31;;;4.13;74.51
19259;BME280;9763;48.780;9.212;2024-01-15T08:41:10;97207.78;;;4.20;73.76
19259;BME280;9763;48.780;9.212;2024-01-15T08:44:34;97203.47;;;4.20;74.56
19259;BME280;9763;48.780;9.212;2024-01-15T08:47:58;97208.91;;;4.30;74.31
19259;BME280;9763;48.780;9.212;2024-01-15T08:51:23;97215.44;;;4.35;74.94
19259;BME280;9763;48.780;9.212;2024-01-15T08:54:48;97200.91;;;4.34;74.84
19259;BME280;9763;48.780;9.212;2024-01-15T08:58:13;97214.63;;;4.49;74.99
19259;BME280;9763;48.780;9.212;2024-01-15T09:01:38;97217.22;;;4.49;74.76
19259;BME280;9763;48.780;9.212;2024-01-15T09:05:02;97237.81;;;4.65;74.92
19259;BME280;9763;48.780;9.212;2024-01-15T09:08:26;97224.69;;;4.68;74.30
19259;BME280;9763;48.780;9.212;2024-01-15T09:11:52;97222.56;;;4.75;74.49
19259;BME280;9763;48.780;9.212;2024-01-15T09:15:16;97223.97;;;4.80;75.52
19259;BME280;9763;48.780;9.212;2024-01-15T09:18:40;97218.50;;;4.85;75.50
19259;BME280;9763;48.780;9.212;2024-01-15T09:22:03;97215.81;;;4.86;75.12
19259;BME280;9763;48.780;9.212;2024-01-15T09:25:27;97207.88;;;4.89;75.34
19259;BME280;9763;48.780;9.212;2024-01-15T09:28:52;97199.72;;;4.95;75.81
19259;BME280;9763;48.780;9.212;2024-01-15T09:32:16;97191.59;;;5.01;74.91
19259;BME280;9763;48.780;9.212;2024-01-15T09:35:39;97197.53;;;5.03;75.00
19259;BME280;9763;48.780;9.212;2024-01-15T09:39:03;97187.69;;;5.08;74.74
19259;BME280;9763;48.780;9.212;2024-01-15T09:42:29;97185.56;;;5.15;75.22
19259;BME280;9763;48.780;9.212;2024-01-15T09:45:55;97199.69;;;5.24;75.14
19259;BME280;9763;48.780;9.212;2024-01-15T09:49:19;97196.72;;;5.30;73.77
19259;BME280;9763;48.780;9.212;2024-01-15T09:52:44;97194.97;;;5.30;74.94
19259;BME280;9763;48.780;9.212;2024-01-15T09:56:10;97183.66;;;5.31;74.57
19259;BME280;9763;48.780;9.212;2024-01-15T09:59:35;97182.63;;;5.34;74.73
19259;BME280;9763;48.780;9.212;2024-01-15T10:03:02;97183.38;;;5.36;74.63
19259;BME280;9763;48.780;9.212;2024-01-15T10:06:27;97179.97;;;5.35;74.76
19259;BME280;9763;48.780;9.212;2024-01-15T10:09:51;97169.44;;;5.38;75.09
19259;BME280;9763;48.780;9.212;2024-01-15T10:13:15;97160.66;;;5.41;74.36
19259;BME280;9763;48.780;9.212;2024-01-15T10:16:39;97164.16;;;5.40;74.32
19259;BME280;9763;48.780;9.212;2024-01-15T10:20:09;97165.81;;;5.41;74.80
19259;BME280;9763;48.780;9.212;2024-01-15T10:23:33;97157.13;;;5.42;74.82
19259;BME280;9763;48.780;9.212;2024-01-15T10:27:05;97157.97;;;5.42;74.55
19259;BME280;9763;48.780;9.212;2024-01-15T10:30:30;97157.00;;;5.43;74.21
19259;BME280;9763;48.780;9.212;2024-01-15T10:34:09;97149.16;;;5.45;74.86
19259;BME280;9763;48.780;9.212;2024-01-15T10:37:34;97134.34;;;5.47;74.97
19259;BME280;9763;48.780;9.212;2024-01-15T10:40:58;97128.06;;;5.51;75.35
19259;BME280;9763;48.780;9.212;2024-01-15T10:44:21;97133.47;;;5.61;74.93
19259;BME280;9763;48.780;9.212;2024-01-15T10:47:45;97117.00;;;5.62;73.91
19259;BME280;9763;48.780;9.212;2024-01-15T10:51:09;97104.25;;;5.59;73.49
19259;BME280;9763;48.780;9.212;2024-01-15T10:54:37;97102.69;;;5.56;73.76
19259;BME280;9763;48.780;9.212;2024-01-15T10:58:02;97111.09;;;5.60;74.16
19259;BME280;9763;48.780;9.212;2024-01-15T11:01:26;97115.78;;;5.67;73.88
19259;BME280;9763;48.780;9.212;2024-01-15T11:04:52;97112.69;;;5.75;74.02
19259;BME280;9763;48.780;9.212;2024-01-15T11:08:17;97115.47;;;5.85;74.17
19259;BME280;9763;48.780;9.212;2024-01-15T11:11:44;97108.97;;;5.92;73.01
19259;BME280;9763;48.780;9.212;2024-01-15T11:15:09;97113.22;;;5.93;73.14
19259;BME280;9763;48.780;9.212;2024-01-15T11:18:36;97108.28;;;5.90;73.09
19259;BME280;9763;48.780;9.212;2024-01-15T11:22:03;97111.56;;;5.92;73.07
19259;BME280;9763;48.780;9.212;2024-01-15T11:25:35;97100.50;;;5.90;73.06
19259;BME280;9763;48.780;9.212;2024-01-15T11:29:03;97080.78;;;5.74;74.01
19259;BME280;9763;48.780;9.212;2024-01-15T11:32:33;97086.06;;;5.73;74.10
19259;BME280;9763;48.780;9.212;2024-01-15T11:35:58;97092.28;;;5.83;74.59
19259;BME280;9763;48.780;9.212;2024-01-15T11:39:39;97090.41;;;5.85;73.59
19259;BME280;9763;48.780;9.212;2024-01-15T11:43:06;97074.47;;;5.78;74.08
19259;BME280;9763;48.780;9.212;2024-01-15T11:46:37;97077.66;;;5.69;74.30
19259;BME280;9763;48.780;9.212;2024-01-15T11:50:08;97086.88;;;5.61;73.93
19259;BME280;9763;48.780;9.212;2024-01-15T11:53:44;97091.41;;;5.44;73.08
19259;BME280;9763;48.780;9.212;2024-01-15T11:57:17;97088.91;;;5.30;74.18
19259;BME280;9763;48.780;9.212;2024-01-15T12:00:47;97072.31;;;5.20;74.62
19259;BME280;9763;48.780;9.212;2024-01-15T12:04:14;97083.16;;;5.13;74.74
19259;BME280;9763;48.780;9.212;2024-01-15T12:07:40;97075.81;;;5.06;74.68
19259;BME280;9763;48.780;9.212;2024-01-15T12:11:10;97075.69;;;5.08;74.99
19259;BME280;9763;48.780;9.212;2024-01-15T12:14:38;97079.00;;;5.10;73.96
19259;BME280;9763;48.780;9.212;2024-01-15T12:18:03;97081.31;;;5.15;74.77
19259;BME280;9763;48.780;9.212;2024-01-15T12:21:28;97093.41;;;5.14;73.92
19259;BME280;9763;48.780;9.212;2024-01-15T12:24:52;97094.75;;;5.07;74.85
19259;BME280;9763;48.780;9.212;2024-01-15T12:28:16;97079.66;;;4.87;75.05
19259;BME280;9763;48.780;9.212;2024-01-15T12:31:39;97090.31;;;4.82;74.92
19259;BME280;9763;48.780;9.212;2024-01-15T12:35:04;97096.13;;;4.71;74.97
19259;BME280;9763;48.780;9.212;2024-01-15T12:38:30;97100.03;;;4.64;75.53
19259;BME280;9763;48.780;9.212;2024-01-15T12:41:54;97104.84;;;4.56;76.76
19259;BME280;9763;48.780;9.212;2024-01-15T12:45:18;97109.28;;;4.54;77.26
19259;BME280;9763;48.780;9.212;2024-01-15T12:48:42;97108.63;;;4.51;77.52
19259;BME280;9763;48.780;9.212;2024-01-15T12:52:09;97117.59;;;4.45;77.21
19259;BME280;9763;48.780;9.212;2024-01-15T12:55:34;97115.56;;;4.36;77.32
19259;BME280;9763;48.780;9.212;2024-01-15T12:58:58;97120.63;;;4.38;78.10
19259;BME280;9763;48.780;9.212;2024-01-15T13:02:24;97118.25;;;4.34;77.78
19259;BME280;9763;48.780;9.212;2024-01-15T13:05:48;97117.97;;;4.39;78.33
19259;BME280;9763;48.780;9.212;2024-01-15T13:09:13;97128.03;;;4.44;78.41
19259;BME280;9763;48.780;9.212;2024-01-15T13:12:39;97130.31;;;4.48;78.27
19259;BME280;9763;48.780;9.212;2024-01-15T13:16:04;97141.28;;;4.52;79.08
19259;BME280;9763;48.780;9.212;2024-01-15T13:19:28;97142.03;;;4.54;78.71
19259;BME280;9763;48.780;9.212;2024-01-15T13:22:51;97148.13;;;4.53;79.03
19259;BME280;9763;48.780;9.212;2024-01-15T13:26:15;97149.03;;;4.52;79.24
19259;BME280;9763;48.780;9.212;2024-01-15T13:29:41;97141.47;;;4.49;78.78
19259;BME280;9763;48.780;9.212;2024-01-15T13:33:05;97148.28;;;4.50;79.38
19259;BME280;9763;48.780;9.212;2024-01-15T13:36:30;97150.88;;;4.50;79.67
19259;BME280;9763;48.780;9.212;2024-01-15T13:39:54;97159.56;;;4.49;79.03
19259;BME280;9763;48.780;9.212;2024-01-15T13:43:18;97156.13;;;4.48;79.10
19259;BME280;9763;48.780;9.212;2024-01-15T13:46:43;97165.75;;;4.46;79.29
19259;BME280;9763;48.780;9.212;2024-01-15T13:50:08;97167.69;;;4.43;79.22
19259;BME280;9763;48.780;9.212;2024-01-15T13:53:32;97174.69;;;4.41;79.77
19259;BME280;9763;48.780;9.212;2024-01-15T13:56:56;97177.38;;;4.39;79.25
19259;BME280;9763;48.780;9.212;2024-01-15T14:00:21;97183.34;;;4.40;80.09
19259;BME280;9763;48.780;9.212;2024-01-15T14:03:47;97194.69;;;4.37;80.02
19259;BME280;9763;48.780;9.212;2024-01-15T14:07:11;97189.63;;;4.35;79.99
19259;BME280;9763;48.780;9.212;2024-01-15T14:10:34;97192.13;;;4.37;79.94
19259;BME280;9763;48.780;9.212;2024-01-15T14:13:58;97192.84;;;4.39;80.03
19259;BME280;9763;48.780;9.212;2024-01-15T14:17:21;97197.09;;;4.40;80.19
19259;BME280;9763;48.780;9.212;2024-01-15T14:20:46;97199.69;;;4.40;80.38
19259;BME280;9763;48.780;9.212;2024-01-15T14:24:10;97209.09;;;4.41;79.74
19259;BME280;9763;48.780;9.212;2024-01-15T14:27:33;97215.94;;;4.42;79.89
19259;BME280;9763;48.780;9.212;2024-01-15T14:30:57;97220.19;;;4.43;80.48
19259;BME280;9763;48.780;9.212;2024-01-15T14:34:23;97232.34;;;4.41;80.07
19259;BME280;9763;48.780;9.212;2024-01-15T14:37:48;97227.34;;;4.38;79.65
19259;BME280;9763;48.780;9.212;2024-01-15T14:41:12;97249.22;;;4.32;79.53
19259;BME280;9763;48.780;9.212;2024-01-15T14:44:36;97260.81;;;4.25;80.03
19259;BME280;9763;48.780;9.212;2024-01-15T14:48:02;97263.75;;;4.19;79.86
19259;BME280;9763;48.780;9.212;2024-01-15T14:51:26;97271.94;;;4.12;78.91
19259;BME280;9763;48.780;9.212;2024-01-15T14:54:51;97274.88;;;4.06;79.62
19259;BME280;9763;48.780;9.212;2024-01-15T14:58:14;97278.47;;;4.03;80.12
19259;BME280;9763;48.780;9.212;2024-01-15T15:01:39;97281.22;;;4.00;79.57
19259;BME280;9763;48.780;9.212;2024-01-15T15:05:05;97288.50;;;3.93;80.10
19259;BME280;9763;48.780;9.212;2024-01-15T15:08:29;97306.56;;;3.93;79.54
19259;BME280;9763;48.780;9.212;2024-01-15T15:11:55;97311.88;;;3.90;79.57
19259;BME280;9763;48.780;9.212;2024-01-15T15:15:18;97314.72;;;3.86;79.41
19259;BME280;9763;48.780;9.212;2024-01-15T15:18:44;97316.66;;;3.82;80.26
19259;BME280;9763;48.780;9.212;2024-01-15T15:22:09;97326.97;;;3.82;80.34
19259;BME280;9763;48.780;9.212;2024-01-15T15:25:33;97339.94;;;3.81;79.95
19259;BME280;9763;48.780;9.212;2024-01-15T15:28:58;97337.38;;;3.81;80.46
19259;BME280;9763;48.780;9.212;2024-01-15T15:32:23;97348.69;;;3.78;79.85
19259;BME280;9763;48.780;9.212;2024-01-15T15:35:47;97339.28;;;3.77;80.31
19259;BME280;9763;48.780;9.212;2024-01-15T15:39:13;97347.22;;;3.74;79.81
19259;BME280;9763;48.780;9.212;2024-01-15T15:42:37;97361.09;;;3.72;80.50
19259;BME280;9763;48.780;9.212;2024-01-15T15:46:02;97356.94;;;3.69;79.73
19259;BME280;9763;48.780;9.212;2024-01-15T15:49:26;97362.09;;;3.69;80.09
19259;BME280;9763;48.780;9.212;2024-01-15T15:52:50;97365.34;;;3.73;80.42
19259;BME280;9763;48.780;9.212;2024-01-15T15:56:14;97369.59;;;3.74;79.81
19259;BME280;9763;48.780;9.212;2024-01-15T15:59:38;97367.84;;;3.74;80.18
19259;BME280;9763;48.780;9.212;2024-01-15T16:03:03;97378.16;;;3.74;79.95
19259;BME280;9763;48.780;9.212;2024-01-15T16:06:27;97393.47;;;3.77;80.36
19259;BME280;9763;48.780;9.212;2024-01-15T16:09:51;97397.72;;;3.78;80.36
19259;BME280;9763;48.780;9.212;2024-01-15T16:13:15;97395.88;;;3.80;80.04
19259;BME280;9763;48.780;9.212;2024-01-15T16:16:40;97404.47;;;3.81;80.43
19259;BME280;9763;48.780;9.212;2024-01-15T16:20:25;97398.69;;;3.76;79.30
19259;BME280;9763;48.780;9.212;2024-01-15T16:24:08;97405.78;;;3.72;79.86
19259;BME280;9763;48.780;9.212;2024-01-15T16:27:47;97413.63;;;3.71;80.14
19259;BME280;9763;48.780;9.212;2024-01-15T16:31:11;97404.28;;;3.68;80.28
19259;BME280;9763;48.780;9.212;2024-01-15T16:34:35;97413.53;;;3.72;80.24
19259;BME280;9763;48.780;9.212;2024-01-15T16:38:00;97401.56;;;3.71;79.86
19259;BME280;9763;48.780;9.212;2024-01-15T16:41:25;97411.13;;;3.69;80.12
19259;BME280;9763;48.780;9.212;2024-01-15T16:44:49;97430.91;;;3.69;79.77
19259;BME280;9763;48.780;9.212;2024-01-15T16:48:13;97433.56;;;3.67;79.91
19259;BME280;9763;48.780;9.212;2024-01-15T16:51:37;97430.25;;;3.65;80.00
19259;BME280;9763;48.780;9.212;2024-01-15T16:55:02;97438.81;;;3.66;79.70
19259;BME280;9763;48.780;9.212;2024-01-15T16:58:26;97439.72;;;3.65;79.33
19259;BME280;9763;48.780;9.212;2024-01-15T17:01:50;97448.31;;;3.65;79.77
19259;BME280;9763;48.780;9.212;2024-01-15T17:05:13;97448.22;;;3.67;79.80
19259;BME280;9763;48.780;9.212;2024-01-15T17:08:38;97453.16;;;3.71;80.34
19259;BME280;9763;48.780;9.212;2024-01-15T17:12:04;97453.00;;;3.74;80.19
19259;BME280;9763;48.780;9.212;2024-01-15T17:15:28;97458.03;;;3.76;79.50
19259;BME280;9763;48.780;9.212;2024-01-15T17:18:51;97462.28;;;3.77;79.74
19259;BME280;9763;48.780;9.212;2024-01-15T17:22:15;97468.28;;;3.77;79.67
19259;BME280;9763;48.780;9.212;2024-01-15T17:25:39;97475.13;;;3.78;79.82
19259;BME280;9763;48.780;9.212;2024-01-15T17:29:05;97482.88;;;3.78;78.55
19259;BME280;9763;48.780;9.212;2024-01-15T17:32:28;97484.59;;;3.78;79.00
19259;BME280;9763;48.780;9.212;2024-01-15T17:35:54;97482.19;;;3.75;79.21
19259;BME280;9763;48.780;9.212;2024-01-15T17:39:18;97484.88;;;3.73;78.80
19259;BME280;9763;48.780;9.212;2024-01-15T17:42:42;97496.09;;;3.72;79.47
19259;BME280;9763;48.780;9.212;2024-01-15T17:46:09;97491.94;;;3.70;78.05
19259;BME280;9763;48.780;9.212;2024-01-15T17:49:34;97497.16;;;3.68;79.01
19259;BME280;9763;48.780;9.212;2024-01-15T17:52:58;97497.25;;;3.67;78.67
19259;BME280;9763;48.780;9.212;2024-01-15T17:56:22;97511.72;;;3.69;79.48
19259;BME280;9763;48.780;9.212;2024-01-15T17:59:45;97510.06;;;3.68;78.80
19259;BME280;9763;48.780;9.212;2024-01-15T18:03:10;97520.38;;;3.68;78.83
19259;BME280;9763;48.780;9.212;2024-01-15T18:06:34;97529.03;;;3.67;78.52
19259;BME280;9763;48.780;9.212;2024-01-15T18:09:58;97537.84;;;3.63;77.89
19259;BME280;9763;48.780;9.212;2024-01-15T18:13:22;97540.97;;;3.52;78.24
19259;BME280;9763;48.780;9.212;2024-01-15T18:16:46;97545.53;;;3.47;78.20
19259;BME280;9763;48.780;9.212;2024-01-15T18:20:14;97544.22;;;3.39;77.59
19259;BME280;9763;48.780;9.212;2024-01-15T18:23:39;97547.28;;;3.30;78.13
19259;BME280;9763;48.780;9.212;2024-01-15T18:27:03;97536.66;;;3.18;76.30
19259;BME280;9763;48.780;9.212;2024-01-15T18:30:26;97546.41;;;3.13;77.99
19259;BME280;9763;48.780;9.212;2024-01-15T18:33:50;97550.09;;;3.08;78.23